메인 페이지
METAR-TAF:

METAR-TAF

공항 :

Fort Drum, 뉴욕, 미국

위도: 44-03N, 경도: 075-44W, 고도: 207m

현재 날씨관측

예보는 33분 전, 15:56시(UTC)에 발표되었습니다.
8kt
온도 18°C
습도 59%
기압 1013 hPa
시정: 16.1km
고도 2900ft 상공 구름 보통

METAR: KGTB 301556Z AUTO 27008KT 10SM SCT029 18/10 A2991 RMK AO2 SLP128 T01760097

시각: 12:29 (16:29 UTC)

예보

예보는 7 시간 29분 전, 09:00시(UTC)에 발표되었습니다.
예보 대상 시간: 30일 09시부터 31일 15시까지 (UTC)
6kt
시정 10km 이상
고도 800ft 상공 흐림
전환 중
30일 12시부터 30일 14시까지 (UTC)
서남서12kt
시정 10km 이상
고도 1000ft 상공 구름 많음
전환 중
30일 16시부터 30일 17시까지 (UTC)
서남서12kt, 순간 최대 풍속 20kt
시정 10km 이상
고도 2000ft 상공 구름 많음
고도 4000ft 상공 흐림
전환 중
30일 21시부터 30일 22시까지 (UTC)
북북서12kt, 순간 최대 풍속 20kt
시정: 9000m
고도 1000ft 상공 구름 보통
고도 2000ft 상공 구름 많음
고도 3000ft 상공 흐림
약한소나기
전환 중
31일 04시부터 31일 05시까지 (UTC)
9kt
시정 10km 이상
고도 1500ft 상공 구름 보통
고도 6000ft 상공 구름 많음
전환 중
31일 09시부터 31일 10시까지 (UTC)
9kt
시정: 0104m
고도 6500ft 상공 구름 보통

TAF: KGTB 300900Z 3009/3115 26006KT 9999 OVC008 QNH2986INS BECMG 3012/3014 24012KT 9999 BKN010 QNH2985INS BECMG 3016/3017 24012G20KT 9999 BKN020 OVC040 QNH2983INS BECMG 3021/3022 33012G20KT 9000 -SHRA SCT010 BKN020 OVC030 QNH2991INS BECMG 3104/3105 35009KT 9999 NSW SCT015 BKN060 QNH3002INS BECMG 3109/3110 35009KT 9999 SCT065 QNH3005INS TX22/3019Z TN07/3109Z LAST NO AMDS AFT 3009 NEXT 0104

4,000개 이상의 공항 관측 자료 및 예보 (METAR 및 TAF 보고).

지도상에서 검색 가능한 기상관측소가 노란 점과 빨간 점으로 표시되어 있습니다.

기상관측소 명을 보려면 표시 위로 마우스를 이동하세요.

날씨 관측과 예보를 보려면 클릭하세요.

지도 변경 : 확대하려면 엑스 표시가 있는 녹색 버튼, 축소하려면 빼기 표시가 있는 녹색 버튼, 다음 페이지의 지도를 보려면 녹색 화살표를 클릭하세요.


METAR-TAF: